Grande Prairie Airport
CYQU : now visible

Airfield :











YOU CAN JOIN US ON...

 
LOGIN :

Register | Disclaimer

   EN    FR    IT 

 









Legend :    VFR   Marginal VFR   IFR   Intensive IFR   Very Intensive IFR
Visi :
Ceiling :
>= 8 km
>= 3000ft
5 to 8 km
1000 to 3000 ft
1500m to 5 km
500 to 1000 ft
800 to 1500m
200 to 500 ft
< 800m
< 200 ft
Symbols :   Thunderstorms  Fog  Heavy snow  Heavy precipitations  Wind > 20 kt






- Airport Elevation : 2195 ft
- IATA code : YQU


CYQU - Grande Prairie

CURRENT METAR :
  • 072000Z 29018G25KT 25SM SCT050 BKN070 02/M08 A2992 RMK SC4AC2 SH DIST W SLP165

EXPIRED METARs :
  • 071900Z 28025G33KT 25SM DRSN SCT055 BKN070 02/M09 A2989 RMK SC4AC2 SLP155
  • 071800Z 28025KT 25SM BKN080 01/M09 A2984 RMK AC5 SLP140

TAF TAF CYQU
Valid from the 07 at 19:00 until the 08 at 07:00 UTC


071838Z 0719/0807 28018G28KT P6SM SCT080
TEMPO 0719/0807 BKN080
BECMG 0722/0724 28012KT RMK NXT FCST BY 080100Z



MET'MAP, your aeronautical weather chart ! - Copyright ORBIFLY December 2007 - Disclaimer

ORBIFLY MET'MAP TEAM :

Programming & Development : Alexandra Zaïnal
Concept & original design : Baudouin d'Aumeries
Assistance for programming : Marc-Olivier Méhu
Technical & hardware support : Manuel Goepfert

Contact : metmap@orbifly.com




SOURCES & CREDITS :

   NOAA       Earth
Advisory